createdAt,value
2022-12-06T00:01:46.050Z,7.35
2022-12-06T00:04:15.795Z,7.35
2022-12-06T00:06:45.435Z,7.26
2022-12-06T00:09:18.785Z,7.09
2022-12-06T00:11:48.459Z,7.31
2022-12-06T00:14:17.121Z,7.41
2022-12-06T00:16:45.504Z,7.36
2022-12-06T00:19:15.787Z,7.28
2022-12-06T00:21:44.354Z,7.35
2022-12-06T00:24:14.268Z,7.28
2022-12-06T00:26:44.020Z,7.39
2022-12-06T00:29:15.695Z,7.36
2022-12-06T00:31:43.688Z,7.17
2022-12-06T00:34:11.720Z,7.39
2022-12-06T00:36:41.692Z,7.51
2022-12-06T00:39:11.464Z,7.16
2022-12-06T00:41:39.819Z,7.13
2022-12-06T00:44:07.926Z,7.29
2022-12-06T00:46:38.236Z,7.42
2022-12-06T00:49:07.791Z,7.64
2022-12-06T00:51:36.892Z,7.37
2022-12-06T00:54:05.437Z,7.73
2022-12-06T00:56:35.732Z,7.63
2022-12-06T00:59:04.190Z,7.46
2022-12-06T01:01:33.665Z,7.21
2022-12-06T01:04:05.641Z,7.14
2022-12-06T01:06:36.253Z,6.98
2022-12-06T01:09:07.098Z,6.97
2022-12-06T01:11:35.577Z,7.18
2022-12-06T01:14:03.412Z,7.33
2022-12-06T01:16:32.264Z,7.13
2022-12-06T01:19:03.359Z,7.01
2022-12-06T01:21:31.850Z,7.20
2022-12-06T01:23:59.927Z,7.32
2022-12-06T01:26:29.551Z,7.33
2022-12-06T01:28:58.967Z,7.45
2022-12-06T01:31:32.137Z,7.53
2022-12-06T01:34:03.101Z,7.37
2022-12-06T01:36:31.199Z,7.53
2022-12-06T01:39:00.992Z,7.02
2022-12-06T01:41:29.177Z,7.30
2022-12-06T01:43:57.607Z,7.29
2022-12-06T01:46:32.762Z,7.09
2022-12-06T01:49:10.838Z,7.26
2022-12-06T01:51:39.996Z,7.41
2022-12-06T01:54:12.253Z,7.11
2022-12-06T01:56:41.193Z,6.95
2022-12-06T01:59:10.556Z,7.18
2022-12-06T02:01:40.354Z,7.17
2022-12-06T02:04:10.300Z,6.83
2022-12-06T02:06:40.035Z,6.89
2022-12-06T02:09:10.072Z,6.46
2022-12-06T02:11:38.239Z,6.42
2022-12-06T02:14:10.729Z,6.53
2022-12-06T02:16:53.152Z,6.53
2022-12-06T02:19:48.212Z,6.29
2022-12-06T02:22:22.451Z,6.37
2022-12-06T02:25:11.652Z,6.53
2022-12-06T02:28:00.257Z,6.48
2022-12-06T02:30:39.975Z,6.61
2022-12-06T02:33:12.371Z,6.74
2022-12-06T02:35:43.337Z,6.83
2022-12-06T02:38:16.241Z,6.50
2022-12-06T02:40:51.400Z,6.47
2022-12-06T02:43:23.155Z,6.08
2022-12-06T02:45:56.068Z,6.34
2022-12-06T02:48:25.659Z,6.50
2022-12-06T02:50:57.457Z,6.47
2022-12-06T02:53:28.699Z,6.63
2022-12-06T02:55:57.848Z,6.55
2022-12-06T02:58:25.636Z,6.54
2022-12-06T03:00:57.824Z,6.79
2022-12-06T03:03:53.112Z,6.57
2022-12-06T03:06:46.544Z,6.42
2022-12-06T03:09:33.724Z,6.56
2022-12-06T03:12:07.751Z,6.78
2022-12-06T03:14:42.884Z,6.75
2022-12-06T03:17:17.861Z,6.47
2022-12-06T03:19:52.538Z,6.34
2022-12-06T03:22:24.347Z,6.52
2022-12-06T03:24:53.274Z,6.54
2022-12-06T03:27:24.431Z,6.35
2022-12-06T03:29:55.389Z,6.12
2022-12-06T03:32:29.156Z,6.09
2022-12-06T03:35:01.005Z,6.13
2022-12-06T03:37:31.873Z,6.03
2022-12-06T03:40:05.349Z,6.69
2022-12-06T03:42:33.722Z,6.31
2022-12-06T03:45:02.425Z,6.42
2022-12-06T03:47:37.603Z,6.31
2022-12-06T03:50:10.392Z,6.06
2022-12-06T03:52:40.078Z,6.61
2022-12-06T03:55:08.996Z,6.60
2022-12-06T03:57:36.941Z,6.55
2022-12-06T04:00:07.153Z,6.48
2022-12-06T04:02:36.448Z,6.55
2022-12-06T04:05:04.988Z,6.81
2022-12-06T04:07:32.712Z,6.53
2022-12-06T04:10:03.799Z,6.60
2022-12-06T04:12:50.967Z,6.62
2022-12-06T04:15:19.741Z,6.61
2022-12-06T04:18:06.387Z,6.54
2022-12-06T04:20:54.650Z,6.33
2022-12-06T04:23:21.840Z,6.45
2022-12-06T04:25:49.544Z,6.03
2022-12-06T04:28:34.941Z,5.90
2022-12-06T04:31:22.537Z,6.22
2022-12-06T04:34:10.041Z,6.13
2022-12-06T04:36:55.844Z,6.25
2022-12-06T04:39:23.849Z,5.79
2022-12-06T04:42:09.396Z,5.86
2022-12-06T04:44:37.259Z,5.96
2022-12-06T04:47:05.926Z,6.34
2022-12-06T04:49:35.649Z,5.78
2022-12-06T04:52:03.604Z,6.13
2022-12-06T04:54:31.501Z,6.07
2022-12-06T04:57:00.254Z,6.07
2022-12-06T04:59:28.800Z,6.13
2022-12-06T05:01:57.679Z,6.00
2022-12-06T05:04:25.449Z,6.16
2022-12-06T05:06:54.682Z,6.15
2022-12-06T05:09:22.579Z,6.32
2022-12-06T05:11:50.308Z,6.21
2022-12-06T05:14:18.069Z,6.10
2022-12-06T05:16:45.826Z,6.07
2022-12-06T05:19:14.807Z,6.12
2022-12-06T05:21:42.872Z,6.21
2022-12-06T05:24:12.154Z,5.95
2022-12-06T05:26:39.909Z,6.23
2022-12-06T05:29:07.639Z,6.45
2022-12-06T05:31:35.494Z,6.51
2022-12-06T05:34:03.296Z,6.51
2022-12-06T05:36:31.035Z,6.23
2022-12-06T05:38:59.094Z,5.77
2022-12-06T05:41:28.240Z,6.26
2022-12-06T05:43:56.061Z,6.04
2022-12-06T05:46:23.855Z,6.03
2022-12-06T05:48:51.564Z,6.24
2022-12-06T05:51:19.355Z,6.45
2022-12-06T05:53:47.112Z,6.55
2022-12-06T05:56:14.868Z,6.26
2022-12-06T05:58:44.014Z,6.37
2022-12-06T06:01:11.821Z,6.36
2022-12-06T06:03:44.015Z,6.01
2022-12-06T06:06:14.909Z,5.62
2022-12-06T06:08:42.876Z,6.16
2022-12-06T06:11:10.568Z,6.16
2022-12-06T06:13:38.445Z,6.16
2022-12-06T06:16:08.196Z,5.99
2022-12-06T06:18:36.048Z,5.97
2022-12-06T06:21:03.925Z,6.22
2022-12-06T06:23:32.137Z,5.86
2022-12-06T06:26:00.010Z,6.12
2022-12-06T06:28:27.826Z,5.84
2022-12-06T06:30:55.573Z,5.98
2022-12-06T06:33:24.650Z,5.78
2022-12-06T06:35:52.429Z,6.02
2022-12-06T06:38:20.168Z,5.72
2022-12-06T06:40:47.927Z,5.88
2022-12-06T06:43:21.512Z,5.57
2022-12-06T06:45:53.283Z,5.71
2022-12-06T06:48:21.903Z,5.77
2022-12-06T06:50:56.719Z,5.79
2022-12-06T06:53:26.368Z,5.61
2022-12-06T06:55:54.935Z,5.82
2022-12-06T06:58:22.698Z,5.95
2022-12-06T07:00:55.048Z,5.78
2022-12-06T07:03:23.549Z,5.95
2022-12-06T07:05:57.204Z,5.88
2022-12-06T07:08:25.739Z,6.07
2022-12-06T07:10:54.260Z,6.08
2022-12-06T07:13:24.223Z,5.98
2022-12-06T07:15:52.911Z,6.18
2022-12-06T07:18:21.279Z,6.29
2022-12-06T07:20:49.927Z,6.23
2022-12-06T07:23:18.978Z,6.58
2022-12-06T07:25:46.788Z,6.35
2022-12-06T07:28:14.578Z,6.34
2022-12-06T07:30:42.384Z,6.36
2022-12-06T07:33:10.073Z,6.31
2022-12-06T07:36:10.335Z,6.10
2022-12-06T07:38:26.928Z,6.11
2022-12-06T07:41:04.386Z,5.87
2022-12-06T07:43:52.335Z,6.32
2022-12-06T07:46:20.225Z,6.16
2022-12-06T07:48:48.013Z,6.31
2022-12-06T07:51:15.699Z,6.28
2022-12-06T07:53:44.795Z,6.16
2022-12-06T07:56:12.829Z,5.93
2022-12-06T07:58:40.518Z,6.08
2022-12-06T08:01:08.341Z,6.30
2022-12-06T08:03:36.199Z,6.01
2022-12-06T08:06:04.233Z,5.99
2022-12-06T08:08:32.870Z,6.18
2022-12-06T08:11:02.672Z,6.41
2022-12-06T08:13:30.568Z,6.32
2022-12-06T08:15:58.376Z,6.48
2022-12-06T08:18:26.575Z,6.60
2022-12-06T08:20:54.333Z,6.26
2022-12-06T08:23:22.097Z,6.10
2022-12-06T08:25:57.848Z,6.29
2022-12-06T08:28:27.217Z,6.55
2022-12-06T08:30:58.326Z,6.62
2022-12-06T08:33:30.514Z,6.65
2022-12-06T08:35:58.266Z,6.88
2022-12-06T08:38:26.178Z,6.36
2022-12-06T08:40:53.861Z,6.75
2022-12-06T08:43:21.627Z,6.69
2022-12-06T08:45:53.344Z,6.77
2022-12-06T08:48:21.369Z,6.85
2022-12-06T08:50:49.170Z,6.75
2022-12-06T08:53:16.955Z,6.79
2022-12-06T08:56:00.358Z,6.75
2022-12-06T08:58:30.431Z,7.10
2022-12-06T09:00:59.734Z,6.88
2022-12-06T09:03:27.733Z,7.03
2022-12-06T09:05:55.534Z,7.00
2022-12-06T09:08:23.364Z,7.04
2022-12-06T09:10:51.189Z,6.96
2022-12-06T09:13:19.028Z,7.10
2022-12-06T09:15:46.771Z,7.07
2022-12-06T09:18:16.024Z,7.08
2022-12-06T09:20:43.982Z,6.36
2022-12-06T09:23:11.763Z,6.52
2022-12-06T09:25:41.700Z,6.10
2022-12-06T09:28:09.764Z,6.49
2022-12-06T09:30:37.496Z,6.75
2022-12-06T09:33:05.270Z,6.96
2022-12-06T09:35:35.174Z,7.28
2022-12-06T09:38:03.925Z,7.13
2022-12-06T09:40:38.583Z,7.32
2022-12-06T09:43:20.040Z,7.24
2022-12-06T09:46:03.329Z,7.39
2022-12-06T09:48:56.020Z,6.80
2022-12-06T09:51:37.575Z,7.09
2022-12-06T09:54:20.109Z,7.25
2022-12-06T09:56:52.885Z,7.23
2022-12-06T09:59:31.773Z,6.95
2022-12-06T10:02:19.072Z,6.85
2022-12-06T10:05:11.424Z,6.88
2022-12-06T10:07:48.762Z,6.96
2022-12-06T10:10:26.106Z,6.53
2022-12-06T10:13:04.479Z,6.53
2022-12-06T10:15:47.723Z,6.67
2022-12-06T10:18:32.246Z,6.81
2022-12-06T10:21:10.743Z,6.78
2022-12-06T10:24:01.799Z,6.67
2022-12-06T10:26:36.324Z,6.77
2022-12-06T10:29:16.403Z,6.90
2022-12-06T10:31:56.122Z,7.10
2022-12-06T10:34:32.288Z,7.00
2022-12-06T10:37:08.307Z,6.94
2022-12-06T10:39:51.874Z,7.34
2022-12-06T10:42:31.779Z,7.34
2022-12-06T10:45:25.111Z,7.27
2022-12-06T10:47:55.189Z,7.51
2022-12-06T10:50:27.579Z,7.91
2022-12-06T10:53:02.254Z,7.84
2022-12-06T10:55:37.386Z,7.97
2022-12-06T10:58:14.235Z,8.26
2022-12-06T11:00:51.736Z,8.17
2022-12-06T11:03:25.240Z,8.23
2022-12-06T11:05:57.349Z,8.47
2022-12-06T11:08:29.801Z,8.12
2022-12-06T11:11:01.185Z,7.93
2022-12-06T11:13:38.288Z,7.94
2022-12-06T11:16:15.015Z,8.09
2022-12-06T11:18:43.616Z,7.90
2022-12-06T11:21:23.099Z,8.20
2022-12-06T11:23:58.074Z,8.26
2022-12-06T11:26:35.177Z,8.18
2022-12-06T11:29:06.314Z,7.73
2022-12-06T11:31:38.981Z,7.96
2022-12-06T11:34:13.708Z,7.95
2022-12-06T11:36:41.708Z,8.12
2022-12-06T11:39:11.972Z,7.93
2022-12-06T11:41:42.592Z,7.68
2022-12-06T11:44:18.419Z,7.41
2022-12-06T11:46:46.581Z,7.59
2022-12-06T11:49:18.457Z,7.71
2022-12-06T11:51:46.212Z,8.11
2022-12-06T11:54:22.276Z,8.00
2022-12-06T11:56:51.959Z,8.00
2022-12-06T11:59:25.968Z,7.88
2022-12-06T12:01:55.904Z,8.03
2022-12-06T12:04:45.819Z,8.56
2022-12-06T12:07:17.854Z,8.29
2022-12-06T12:09:50.823Z,8.57
2022-12-06T12:12:22.550Z,8.35
2022-12-06T12:14:57.343Z,8.48
2022-12-06T12:17:30.099Z,8.39
2022-12-06T12:20:02.000Z,8.44
2022-12-06T12:22:36.096Z,8.60
2022-12-06T12:25:18.858Z,8.62
2022-12-06T12:27:50.352Z,8.72
2022-12-06T12:30:36.572Z,8.66
2022-12-06T12:33:16.627Z,8.89
2022-12-06T12:35:46.283Z,8.68
2022-12-06T12:38:18.187Z,8.84
2022-12-06T12:40:48.661Z,9.06
2022-12-06T12:43:22.153Z,9.18
2022-12-06T12:46:20.295Z,8.95
2022-12-06T12:48:50.613Z,8.69
2022-12-06T12:51:34.781Z,8.60
2022-12-06T12:54:04.884Z,8.71
2022-12-06T12:56:34.934Z,8.73
2022-12-06T12:59:14.359Z,8.48
2022-12-06T13:01:46.224Z,9.04
2022-12-06T13:04:21.331Z,9.12
2022-12-06T13:06:52.317Z,8.91
2022-12-06T13:09:27.759Z,9.07
2022-12-06T13:11:59.975Z,9.12
2022-12-06T13:14:30.685Z,8.98
2022-12-06T13:17:02.206Z,9.00
2022-12-06T13:19:35.260Z,9.43
2022-12-06T13:22:05.851Z,9.41
2022-12-06T13:24:34.915Z,9.20
2022-12-06T13:27:06.374Z,9.26
2022-12-06T13:29:39.965Z,9.15
2022-12-06T13:32:15.451Z,9.43
2022-12-06T13:34:49.051Z,9.54
2022-12-06T13:37:37.184Z,9.19
2022-12-06T13:40:06.613Z,9.41
2022-12-06T13:42:46.594Z,9.32
2022-12-06T13:45:45.462Z,9.18
2022-12-06T13:48:39.679Z,9.32
2022-12-06T13:51:11.895Z,9.35
2022-12-06T13:54:12.906Z,9.52
2022-12-06T13:56:42.287Z,9.08
2022-12-06T13:59:42.366Z,9.50
2022-12-06T14:02:52.997Z,9.40
2022-12-06T14:06:12.185Z,9.09
2022-12-06T14:08:45.077Z,9.13
2022-12-06T14:11:25.612Z,9.01
2022-12-06T14:14:08.845Z,9.27
2022-12-06T14:16:40.436Z,9.17
2022-12-06T14:19:15.757Z,9.10
2022-12-06T14:21:53.161Z,8.87
2022-12-06T14:24:28.879Z,8.95
2022-12-06T14:27:05.003Z,8.96
2022-12-06T14:29:33.115Z,8.86
2022-12-06T14:32:01.135Z,9.04
2022-12-06T14:34:31.453Z,9.02
2022-12-06T14:37:03.318Z,9.33
2022-12-06T14:39:32.878Z,9.13
2022-12-06T14:42:20.026Z,9.26
2022-12-06T14:44:50.223Z,8.94
2022-12-06T14:47:20.394Z,8.95
2022-12-06T14:50:10.352Z,8.73
2022-12-06T14:52:57.741Z,8.78
2022-12-06T14:55:26.145Z,8.70
2022-12-06T14:57:58.542Z,8.91
2022-12-06T15:00:30.535Z,8.80
2022-12-06T15:03:24.168Z,8.78
2022-12-06T15:06:10.137Z,8.93
2022-12-06T15:08:40.260Z,8.67
2022-12-06T15:11:43.307Z,8.80
2022-12-06T15:14:19.045Z,8.71
2022-12-06T15:16:59.415Z,8.56
2022-12-06T15:19:27.669Z,8.64
2022-12-06T15:21:56.004Z,8.73
2022-12-06T15:24:26.626Z,8.61
2022-12-06T15:26:55.091Z,8.68
2022-12-06T15:29:23.282Z,8.50
2022-12-06T15:31:55.705Z,8.58
2022-12-06T15:34:27.579Z,8.34
2022-12-06T15:37:22.393Z,8.47
2022-12-06T15:39:45.491Z,8.54
2022-12-06T15:42:19.743Z,8.51
2022-12-06T15:45:01.036Z,8.23
2022-12-06T15:47:29.335Z,8.20
2022-12-06T15:49:58.487Z,8.40
2022-12-06T15:52:27.431Z,8.58
2022-12-06T15:54:57.646Z,8.56
2022-12-06T15:57:25.404Z,8.29
2022-12-06T15:59:53.247Z,8.20
2022-12-06T16:02:21.103Z,7.87
2022-12-06T16:04:50.926Z,7.86
2022-12-06T16:07:19.787Z,7.91
2022-12-06T16:09:48.479Z,7.78
2022-12-06T16:12:18.086Z,7.50
2022-12-06T16:14:45.900Z,7.60
2022-12-06T16:17:13.751Z,7.55
2022-12-06T16:19:58.793Z,7.44
2022-12-06T16:22:40.495Z,7.61
2022-12-06T16:25:08.946Z,7.83
2022-12-06T16:27:38.113Z,7.95
2022-12-06T16:30:07.304Z,7.62
2022-12-06T16:32:35.098Z,7.54
2022-12-06T16:35:03.143Z,7.39
2022-12-06T16:37:31.102Z,7.82
2022-12-06T16:39:58.896Z,8.07
2022-12-06T16:42:26.608Z,7.91
2022-12-06T16:44:55.727Z,7.71
2022-12-06T16:49:50.228Z,7.81
2022-12-06T16:52:18.531Z,7.70
2022-12-06T16:54:46.455Z,7.77
2022-12-06T16:57:15.335Z,7.69
2022-12-06T16:59:43.392Z,7.72
2022-12-06T17:02:25.655Z,7.62
2022-12-06T17:04:53.578Z,7.97
2022-12-06T17:07:21.375Z,7.88
2022-12-06T17:09:49.160Z,8.12
2022-12-06T17:12:17.085Z,8.21
2022-12-06T17:14:45.019Z,8.14
2022-12-06T17:17:14.500Z,8.08
2022-12-06T17:19:43.790Z,8.34
2022-12-06T17:22:12.880Z,8.45
2022-12-06T17:24:40.820Z,8.46
2022-12-06T17:27:09.469Z,8.37
2022-12-06T17:29:37.727Z,8.23
2022-12-06T17:32:06.039Z,8.26
2022-12-06T17:34:34.100Z,8.18
2022-12-06T17:37:03.238Z,8.32
2022-12-06T17:39:31.069Z,8.25
2022-12-06T17:42:16.189Z,8.08
2022-12-06T17:44:44.105Z,8.24
2022-12-06T17:47:12.296Z,8.06
2022-12-06T17:49:40.061Z,8.29
2022-12-06T17:52:09.247Z,8.44
2022-12-06T17:54:37.016Z,8.09
2022-12-06T17:57:04.939Z,8.29
2022-12-06T17:59:34.544Z,8.00
2022-12-06T18:02:18.639Z,8.38
2022-12-06T18:04:47.734Z,8.35
2022-12-06T18:07:18.209Z,8.32
2022-12-06T18:09:46.012Z,8.30
2022-12-06T18:12:15.616Z,8.15
2022-12-06T18:14:43.429Z,8.21
2022-12-06T18:17:11.155Z,8.69
2022-12-06T18:19:40.357Z,8.73
2022-12-06T18:22:08.351Z,8.28
2022-12-06T18:24:37.699Z,8.35
2022-12-06T18:27:05.887Z,8.34
2022-12-06T18:29:34.253Z,8.10
2022-12-06T18:32:02.275Z,8.27
2022-12-06T18:34:30.433Z,8.48
2022-12-06T18:36:58.206Z,8.26
2022-12-06T18:39:26.067Z,8.44
2022-12-06T18:41:55.983Z,8.42
2022-12-06T18:44:24.707Z,8.37
2022-12-06T18:46:52.607Z,8.31
2022-12-06T18:49:20.456Z,8.37
2022-12-06T18:51:48.212Z,8.53
2022-12-06T18:54:15.993Z,8.43
2022-12-06T18:56:43.894Z,8.59
2022-12-06T18:59:13.340Z,8.44
2022-12-06T19:01:42.289Z,8.36
2022-12-06T19:04:14.672Z,8.52
2022-12-06T19:06:44.313Z,8.48
2022-12-06T19:09:14.220Z,8.70
2022-12-06T19:11:44.443Z,8.77
2022-12-06T19:14:14.312Z,8.66
2022-12-06T19:16:43.919Z,8.56
2022-12-06T19:19:16.585Z,8.42
2022-12-06T19:21:45.577Z,8.22
2022-12-06T19:24:15.891Z,8.43
2022-12-06T19:26:44.129Z,8.35
2022-12-06T19:29:13.643Z,8.35
2022-12-06T19:31:41.857Z,8.22
2022-12-06T19:34:15.352Z,8.18
2022-12-06T19:36:43.227Z,8.40
2022-12-06T19:39:12.424Z,8.37
2022-12-06T19:41:54.490Z,8.52
2022-12-06T19:44:23.656Z,8.57
2022-12-06T19:46:52.463Z,8.63
2022-12-06T19:49:22.872Z,8.39
2022-12-06T19:51:51.309Z,8.39
2022-12-06T19:54:22.197Z,8.44
2022-12-06T19:56:50.573Z,8.34
2022-12-06T19:59:18.584Z,8.32
2022-12-06T20:01:50.001Z,8.47
2022-12-06T20:04:20.292Z,8.13
2022-12-06T20:06:48.331Z,8.35
2022-12-06T20:09:17.052Z,8.41
2022-12-06T20:12:04.487Z,8.29
2022-12-06T20:14:37.916Z,8.13
2022-12-06T20:17:09.875Z,8.22
2022-12-06T20:19:38.148Z,8.02
2022-12-06T20:22:06.212Z,7.99
2022-12-06T20:24:34.272Z,8.02
2022-12-06T20:27:02.656Z,7.96
2022-12-06T20:29:32.516Z,7.88
2022-12-06T20:32:01.437Z,8.15
2022-12-06T20:34:34.031Z,7.81
2022-12-06T20:37:04.178Z,8.14
2022-12-06T20:39:35.095Z,8.10
2022-12-06T20:42:05.287Z,8.07
2022-12-06T20:44:33.270Z,8.01
2022-12-06T20:47:01.284Z,8.08
2022-12-06T20:49:30.518Z,7.93
2022-12-06T20:51:59.601Z,7.86
2022-12-06T20:54:27.350Z,7.65
2022-12-06T20:56:55.230Z,7.82
2022-12-06T20:59:23.148Z,7.63
2022-12-06T21:01:51.123Z,7.58
2022-12-06T21:04:19.020Z,7.58
2022-12-06T21:06:48.232Z,7.57
2022-12-06T21:09:16.086Z,7.47
2022-12-06T21:11:43.905Z,7.27
2022-12-06T21:14:13.646Z,7.25
2022-12-06T21:16:42.586Z,7.25
2022-12-06T21:19:13.916Z,7.24
2022-12-06T21:21:44.733Z,7.12
2022-12-06T21:24:16.036Z,7.19
2022-12-06T21:26:43.964Z,7.05
2022-12-06T21:29:16.228Z,7.01
2022-12-06T21:31:44.127Z,7.19
2022-12-06T21:34:12.492Z,6.91
2022-12-06T21:36:40.510Z,7.21
2022-12-06T21:39:09.079Z,6.77
2022-12-06T21:41:38.869Z,7.04
2022-12-06T21:44:06.859Z,7.35
2022-12-06T21:46:34.777Z,7.08
2022-12-06T21:49:02.610Z,7.20
2022-12-06T21:51:32.429Z,7.09
2022-12-06T21:54:01.483Z,6.93
2022-12-06T21:56:32.818Z,6.96
2022-12-06T21:59:02.492Z,7.18
2022-12-06T22:01:31.635Z,6.93
2022-12-06T22:04:02.175Z,6.83
2022-12-06T22:06:31.420Z,6.91
2022-12-06T22:09:01.428Z,6.97
2022-12-06T22:11:30.119Z,6.71
2022-12-06T22:13:58.990Z,6.88
2022-12-06T22:16:29.060Z,6.81
2022-12-06T22:18:57.038Z,6.66
2022-12-06T22:21:26.963Z,6.49
2022-12-06T22:23:55.820Z,6.86
2022-12-06T22:26:24.320Z,6.77
2022-12-06T22:28:52.357Z,6.93
2022-12-06T22:31:22.413Z,6.91
2022-12-06T22:33:53.104Z,7.13
2022-12-06T22:36:22.539Z,7.21
2022-12-06T22:38:51.645Z,7.15
2022-12-06T22:41:20.156Z,7.00
2022-12-06T22:43:51.982Z,7.09
2022-12-06T22:46:20.392Z,7.01
2022-12-06T22:48:48.909Z,6.72
2022-12-06T22:51:19.936Z,6.68
2022-12-06T22:53:49.840Z,6.74
2022-12-06T22:56:17.561Z,6.61
2022-12-06T22:58:45.337Z,6.58
2022-12-06T23:01:16.647Z,6.32
2022-12-06T23:03:45.421Z,6.44
2022-12-06T23:06:13.933Z,6.30
2022-12-06T23:08:43.633Z,6.35
2022-12-06T23:11:13.887Z,6.19
2022-12-06T23:13:41.892Z,6.20
2022-12-06T23:16:12.645Z,5.94
2022-12-06T23:18:40.763Z,6.02
2022-12-06T23:21:11.435Z,5.99
2022-12-06T23:23:41.173Z,6.09
2022-12-06T23:26:12.185Z,6.01
2022-12-06T23:28:40.302Z,5.91
2022-12-06T23:31:10.849Z,6.01
2022-12-06T23:33:39.187Z,5.92
2022-12-06T23:36:09.328Z,5.69
2022-12-06T23:38:37.571Z,5.76
2022-12-06T23:41:06.852Z,5.60
2022-12-06T23:43:37.006Z,5.66
2022-12-06T23:46:07.704Z,5.64
2022-12-06T23:48:36.692Z,5.73
2022-12-06T23:51:07.169Z,5.97
2022-12-06T23:53:35.699Z,5.71
2022-12-06T23:56:07.043Z,5.93
2022-12-06T23:58:36.827Z,5.97
